Time;durP1;ratioP1;P1;durP2;ratioP2;P2;SDS_P1;SDS_P2;PMS_P1;PMS_P2;Temp;Humidity;BMP_temperature;BMP_pressure;BME280_temperature;BME280_humidity;BME280_pressure;Samples;Min_cycle;Max_cycle;Signal;HPM_P1;HPM_P2
2024/03/01 00:00:25;;;;;;;9.30;5.28;;;7.40;99.90;;;;;;4937367;29;20042;-88
2024/03/01 00:02:52;;;;;;;12.13;4.70;;;8.00;99.90;;;;;;4937756;29;20055;-88
2024/03/01 00:05:19;;;;;;;12.05;5.07;;;7.40;99.90;;;;;;4950123;29;20481;-88
2024/03/01 00:07:46;;;;;;;9.07;4.82;;;7.40;99.90;;;;;;4930928;29;20040;-88
2024/03/01 00:10:13;;;;;;;10.40;5.05;;;7.40;99.90;;;;;;4937318;29;20036;-88
2024/03/01 00:12:39;;;;;;;9.85;5.07;;;7.40;99.90;;;;;;4956646;29;20039;-88
2024/03/01 00:15:07;;;;;;;9.60;5.22;;;7.40;99.90;;;;;;4937339;29;20047;-88
2024/03/01 00:17:34;;;;;;;9.63;5.32;;;7.40;99.90;;;;;;4934903;29;20411;-88
2024/03/01 00:20:01;;;;;;;12.27;5.13;;;7.40;99.90;;;;;;4937976;29;20143;-88
2024/03/01 00:22:27;;;;;;;7.85;4.60;;;7.40;99.90;;;;;;4928115;29;20040;-88
2024/03/01 00:24:54;;;;;;;11.38;4.90;;;7.60;99.90;;;;;;4937458;29;20048;-88
2024/03/01 00:27:21;;;;;;;11.95;5.65;;;7.40;99.90;;;;;;4937588;29;20110;-88
2024/03/01 00:29:47;;;;;;;10.63;5.20;;;7.40;99.90;;;;;;4937332;29;20080;-87
2024/03/01 00:32:14;;;;;;;9.25;5.15;;;8.10;99.90;;;;;;4954687;29;20708;-88
2024/03/01 00:34:40;;;;;;;11.13;5.05;;;7.40;99.90;;;;;;4936721;29;20193;-87
2024/03/01 00:37:07;;;;;;;12.88;4.97;;;8.40;99.90;;;;;;4941510;29;20497;-88
2024/03/01 00:39:34;;;;;;;8.55;4.53;;;7.50;99.90;;;;;;4937587;29;20040;-88
2024/03/01 00:42:01;;;;;;;11.95;4.97;;;8.50;99.90;;;;;;4932580;29;20079;-88
2024/03/01 00:44:27;;;;;;;9.15;4.78;;;8.10;99.90;;;;;;4937259;29;20516;-88
2024/03/01 00:46:54;;;;;;;10.85;5.10;;;8.40;99.90;;;;;;4937757;29;20051;-88
2024/03/01 00:49:20;;;;;;;10.80;5.05;;;8.50;99.90;;;;;;4937214;29;20505;-88
2024/03/01 00:51:47;;;;;;;10.27;4.90;;;7.40;99.90;;;;;;4941534;29;20044;-88
2024/03/01 00:54:14;;;;;;;8.25;4.72;;;7.40;99.90;;;;;;4937333;29;20036;-89
2024/03/01 00:56:40;;;;;;;10.15;4.60;;;7.40;99.90;;;;;;4933242;29;20047;-89
2024/03/01 00:59:07;;;;;;;8.07;4.50;;;7.80;99.90;;;;;;4937133;29;20128;-88
2024/03/01 01:01:33;;;;;;;9.15;4.80;;;7.70;99.90;;;;;;4939737;29;20051;-88
2024/03/01 01:04:00;;;;;;;9.60;4.85;;;7.70;99.90;;;;;;4929200;29;20508;-88
2024/03/01 01:06:26;;;;;;;11.48;4.90;;;7.30;99.90;;;;;;4938885;29;20074;-88
2024/03/01 01:08:53;;;;;;;10.43;4.78;;;8.00;99.90;;;;;;4923545;29;20044;-88
2024/03/01 01:11:20;;;;;;;7.88;4.63;;;7.30;99.90;;;;;;4957891;29;20532;-88
2024/03/01 01:13:47;;;;;;;9.60;4.35;;;7.60;99.90;;;;;;4938372;29;20114;-88
2024/03/01 01:16:13;;;;;;;9.63;4.90;;;7.30;99.90;;;;;;4956358;29;20043;-88
2024/03/01 01:18:40;;;;;;;9.10;4.55;;;7.30;99.90;;;;;;4940913;29;20053;-89
2024/03/01 01:21:06;;;;;;;8.80;4.60;;;7.30;99.90;;;;;;4940516;29;20039;-87
2024/03/01 01:23:33;;;;;;;9.13;4.68;;;7.30;99.90;;;;;;4940749;29;20074;-88
2024/03/01 01:26:00;;;;;;;10.35;5.10;;;7.30;99.90;;;;;;4940324;29;20106;-88
2024/03/01 01:28:27;;;;;;;10.32;5.03;;;7.40;99.90;;;;;;4939881;29;20494;-88
2024/03/01 01:30:53;;;;;;;7.55;4.18;;;7.40;99.90;;;;;;4940192;29;20050;-88
2024/03/01 01:33:20;;;;;;;12.20;4.95;;;7.40;99.90;;;;;;4940636;29;20040;-89
2024/03/01 01:35:47;;;;;;;9.55;4.63;;;7.40;99.90;;;;;;4945649;29;20051;-88
2024/03/01 01:38:13;;;;;;;7.25;3.85;;;7.40;99.90;;;;;;4931315;29;20417;-88
2024/03/01 01:40:41;;;;;;;7.63;3.80;;;7.40;99.90;;;;;;4940329;29;20047;-88
2024/03/01 01:43:08;;;;;;;8.57;4.95;;;7.40;99.90;;;;;;4936585;29;20047;-88
2024/03/01 01:45:34;;;;;;;9.55;4.43;;;7.40;99.90;;;;;;4935132;29;20138;-88
2024/03/01 01:48:02;;;;;;;9.43;4.53;;;7.50;99.90;;;;;;4941942;29;20084;-88
2024/03/01 01:50:30;;;;;;;7.57;3.83;;;7.50;99.90;;;;;;4939816;29;20817;-88
2024/03/01 01:52:57;;;;;;;7.40;4.35;;;7.40;99.90;;;;;;4939846;29;20036;-88
2024/03/01 01:55:24;;;;;;;7.80;4.20;;;7.50;99.90;;;;;;4940050;29;20050;-88
2024/03/01 01:57:52;;;;;;;9.60;4.47;;;7.40;99.90;;;;;;4940018;29;20036;-88
2024/03/01 02:00:18;;;;;;;8.02;4.47;;;7.40;99.90;;;;;;4940116;29;20489;-88
2024/03/01 02:02:50;;;;;;;10.10;4.45;;;7.40;99.90;;;;;;4939937;29;20047;-88
2024/03/01 02:05:18;;;;;;;8.10;4.28;;;7.30;99.90;;;;;;4939621;29;20138;-88
2024/03/01 02:07:45;;;;;;;8.85;4.40;;;7.30;99.90;;;;;;4943538;29;20781;-88
2024/03/01 02:10:19;;;;;;;7.22;4.00;;;7.30;99.90;;;;;;4939470;29;20091;-88
2024/03/01 02:13:01;;;;;;;8.02;4.10;;;7.30;99.90;;;;;;4939083;29;20036;-88
2024/03/01 02:15:28;;;;;;;8.75;4.40;;;7.30;99.90;;;;;;4939866;29;20039;-88
2024/03/01 02:17:57;;;;;;;7.32;3.92;;;7.30;99.90;;;;;;4939314;29;20653;-88
2024/03/01 02:20:27;;;;;;;8.70;4.65;;;7.30;99.90;;;;;;4939808;29;20114;-88
2024/03/01 02:23:00;;;;;;;7.57;3.95;;;7.30;99.90;;;;;;4939355;29;20044;-88
2024/03/01 02:25:27;;;;;;;7.20;4.10;;;7.30;99.90;;;;;;4933769;29;20050;-88
2024/03/01 02:27:53;;;;;;;10.60;4.38;;;7.30;99.90;;;;;;4939225;29;20043;-88
2024/03/01 02:30:20;;;;;;;9.20;4.03;;;7.30;99.90;;;;;;4939078;29;20072;-88
2024/03/01 02:32:47;;;;;;;9.02;4.43;;;7.30;99.90;;;;;;4941114;29;20043;-88
2024/03/01 02:35:14;;;;;;;8.38;4.47;;;7.40;99.90;;;;;;4931899;29;20084;-88
2024/03/01 02:37:43;;;;;;;9.38;4.50;;;7.40;99.90;;;;;;4939147;29;20508;-88
2024/03/01 02:40:11;;;;;;;9.18;4.35;;;7.80;99.90;;;;;;4938879;29;20130;-88
2024/03/01 02:42:37;;;;;;;11.63;4.43;;;7.40;99.90;;;;;;4932848;29;20043;-88
2024/03/01 02:45:04;;;;;;;9.70;4.70;;;7.50;99.90;;;;;;4939070;29;20047;-88
2024/03/01 02:47:31;;;;;;;11.27;4.72;;;7.50;99.90;;;;;;4934215;29;20517;-88
2024/03/01 02:49:58;;;;;;;10.13;4.60;;;7.60;99.90;;;;;;4930525;29;20043;-88
2024/03/01 02:52:25;;;;;;;8.65;4.60;;;7.80;99.90;;;;;;4933814;29;20140;-88
2024/03/01 02:54:51;;;;;;;7.85;4.25;;;8.60;99.90;;;;;;4920089;29;20513;-89
2024/03/01 02:57:18;;;;;;;10.10;4.00;;;8.10;99.90;;;;;;4938385;29;20489;-88
2024/03/01 02:59:45;;;;;;;8.27;4.40;;;7.50;99.90;;;;;;4938454;29;20036;-88
2024/03/01 03:02:11;;;;;;;9.75;4.05;;;8.30;99.90;;;;;;4933043;29;20044;-88
2024/03/01 03:04:38;;;;;;;7.22;4.10;;;7.50;99.90;;;;;;4940875;29;20043;-88
2024/03/01 03:07:05;;;;;;;12.60;4.43;;;7.60;99.90;;;;;;4937854;29;20501;-88
2024/03/01 03:09:31;;;;;;;7.05;3.97;;;8.40;99.90;;;;;;4942318;29;20489;-88
2024/03/01 03:11:58;;;;;;;10.48;4.75;;;7.60;99.90;;;;;;4941890;29;20075;-88
2024/03/01 03:14:25;;;;;;;9.35;4.55;;;7.60;99.90;;;;;;4938088;29;20791;-88
2024/03/01 03:16:52;;;;;;;8.55;4.82;;;8.40;99.90;;;;;;4937868;29;20036;-88
2024/03/01 03:19:19;;;;;;;8.75;5.05;;;7.60;99.90;;;;;;4938496;29;20043;-88
2024/03/01 03:21:45;;;;;;;9.48;4.97;;;7.60;99.90;;;;;;4935350;29;20039;-88
2024/03/01 03:24:12;;;;;;;8.35;4.43;;;8.70;99.90;;;;;;4937892;29;20036;-88
2024/03/01 03:26:39;;;;;;;9.18;4.55;;;7.60;99.90;;;;;;4935966;29;20565;-88
2024/03/01 03:29:05;;;;;;;9.80;4.85;;;7.70;99.90;;;;;;4933077;29;20062;-88
2024/03/01 03:31:32;;;;;;;9.48;4.53;;;8.60;99.90;;;;;;4938014;29;20036;-88
2024/03/01 03:33:59;;;;;;;9.50;4.90;;;7.70;99.90;;;;;;4934581;29;20045;-88
2024/03/01 03:36:26;;;;;;;7.82;4.40;;;8.40;99.90;;;;;;4953127;29;20102;-88
2024/03/01 03:38:53;;;;;;;9.73;5.30;;;7.70;99.90;;;;;;4937934;29;20047;-88
2024/03/01 03:41:19;;;;;;;10.27;4.97;;;7.70;99.90;;;;;;4932245;29;20131;-88
2024/03/01 03:43:46;;;;;;;13.98;5.32;;;7.70;99.90;;;;;;4935222;29;20421;-88
2024/03/01 03:46:12;;;;;;;11.05;5.05;;;7.60;99.90;;;;;;4937914;29;20416;-88
2024/03/01 03:48:39;;;;;;;10.75;5.75;;;7.70;99.90;;;;;;4937683;29;20039;-88
2024/03/01 03:51:06;;;;;;;9.70;5.10;;;7.70;99.90;;;;;;4937198;29;20855;-88
2024/03/01 03:53:33;;;;;;;10.25;5.07;;;7.70;99.90;;;;;;4937349;29;20075;-88
2024/03/01 03:55:59;;;;;;;11.50;5.32;;;7.60;99.90;;;;;;4938103;29;20050;-88
2024/03/01 03:58:26;;;;;;;11.13;5.50;;;7.70;99.90;;;;;;4936059;29;20074;-87
2024/03/01 04:00:52;;;;;;;9.20;4.88;;;7.70;99.90;;;;;;4930836;29;20103;-88
2024/03/01 04:03:19;;;;;;;10.45;5.55;;;8.70;99.90;;;;;;4937769;29;20051;-88
2024/03/01 04:05:46;;;;;;;9.50;5.45;;;7.70;99.90;;;;;;4937608;29;20040;-88
2024/03/01 04:08:12;;;;;;;9.48;5.25;;;8.10;99.90;;;;;;4934955;29;20773;-88
2024/03/01 04:10:39;;;;;;;9.20;5.38;;;7.60;99.90;;;;;;4932534;29;20063;-88
2024/03/01 04:13:08;;;;;;;12.02;5.50;;;7.70;99.90;;;;;;4934239;29;20066;-88
2024/03/01 04:15:34;;;;;;;9.93;5.10;;;7.70;99.90;;;;;;4943868;29;20036;-88
2024/03/01 04:18:02;;;;;;;9.40;5.38;;;7.70;99.90;;;;;;4949690;29;20461;-88
2024/03/01 04:20:28;;;;;;;10.63;5.80;;;7.70;99.90;;;;;;4952680;29;20044;-88
2024/03/01 04:22:55;;;;;;;12.75;6.30;;;7.70;99.90;;;;;;4936741;29;20047;-88
2024/03/01 04:25:23;;;;;;;11.77;5.60;;;7.70;99.90;;;;;;4952733;29;20386;-88
2024/03/01 04:27:50;;;;;;;11.52;5.32;;;7.80;99.90;;;;;;4935420;29;20071;-88
2024/03/01 04:30:17;;;;;;;10.73;5.93;;;7.70;99.90;;;;;;4937238;29;20060;-88
2024/03/01 04:32:43;;;;;;;11.68;5.80;;;7.70;99.90;;;;;;4934865;29;20405;-88
2024/03/01 04:35:12;;;;;;;12.55;6.10;;;7.80;99.90;;;;;;4936767;29;20052;-88
2024/03/01 04:37:39;;;;;;;12.15;5.63;;;7.70;99.90;;;;;;4940993;29;20485;-88
2024/03/01 04:40:07;;;;;;;11.25;5.97;;;7.70;99.90;;;;;;4949158;29;20051;-88
2024/03/01 04:42:36;;;;;;;12.10;5.85;;;7.70;99.90;;;;;;4940978;29;20605;-88
2024/03/01 04:45:07;;;;;;;10.35;6.20;;;7.90;99.90;;;;;;4943787;29;20138;-88
2024/03/01 04:47:33;;;;;;;10.75;5.72;;;7.70;99.90;;;;;;4940425;29;20054;-88
2024/03/01 04:50:00;;;;;;;13.27;5.78;;;8.00;99.90;;;;;;4940894;29;20122;-87
2024/03/01 04:52:26;;;;;;;10.93;6.18;;;8.50;99.90;;;;;;4940768;29;20111;-88
2024/03/01 04:54:53;;;;;;;12.90;6.63;;;8.00;99.90;;;;;;4940877;29;20070;-88
2024/03/01 04:57:20;;;;;;;12.65;6.20;;;8.30;99.90;;;;;;4940053;29;20440;-88
2024/03/01 04:59:46;;;;;;;12.50;6.05;;;7.70;99.90;;;;;;4940668;29;20044;-88
2024/03/01 05:02:13;;;;;;;11.23;6.38;;;7.70;99.90;;;;;;4940436;29;20043;-88
2024/03/01 05:04:43;;;;;;;14.52;6.70;;;8.00;99.90;;;;;;4940811;29;20052;-88
2024/03/01 05:07:09;;;;;;;11.90;6.35;;;8.00;99.90;;;;;;4933699;29;20435;-88
2024/03/01 05:09:38;;;;;;;14.75;6.65;;;7.70;99.90;;;;;;4938069;29;20138;-87
2024/03/01 05:12:05;;;;;;;13.77;6.70;;;8.20;99.90;;;;;;4939359;29;20223;-87
2024/03/01 05:14:32;;;;;;;11.98;6.53;;;7.60;99.90;;;;;;4940844;29;20047;-88
2024/03/01 05:16:58;;;;;;;17.77;6.90;;;8.10;99.90;;;;;;4940487;29;20047;-88
2024/03/01 05:19:25;;;;;;;12.77;7.00;;;7.60;99.90;;;;;;4952535;29;20064;-88
2024/03/01 05:21:52;;;;;;;14.85;6.72;;;8.20;99.90;;;;;;4938692;29;20039;-88
2024/03/01 05:24:18;;;;;;;15.45;7.88;;;7.50;99.90;;;;;;4940186;29;20043;-88
2024/03/01 05:26:45;;;;;;;11.80;6.63;;;8.10;99.90;;;;;;4935554;29;20176;-87
2024/03/01 05:29:14;;;;;;;13.55;7.38;;;7.30;99.90;;;;;;4953573;29;20118;-88
2024/03/01 05:31:47;;;;;;;11.65;6.40;;;7.30;99.90;;;;;;4939820;29;20087;-88
2024/03/01 05:34:15;;;;;;;13.63;7.07;;;8.10;99.90;;;;;;4934842;29;20060;-88
2024/03/01 05:36:41;;;;;;;12.00;6.50;;;7.20;99.90;;;;;;4927001;29;20102;-88
2024/03/01 05:39:17;;;;;;;12.48;6.95;;;7.70;99.90;;;;;;4920954;29;20044;-88
2024/03/01 05:41:45;;;;;;;14.95;6.85;;;7.20;99.90;;;;;;4937255;29;20516;-88
2024/03/01 05:44:13;;;;;;;13.35;7.20;;;7.20;99.90;;;;;;4920634;29;20036;-88
2024/03/01 05:46:41;;;;;;;14.43;7.43;;;7.20;99.90;;;;;;4921023;29;20537;-88
2024/03/01 05:49:10;;;;;;;15.23;7.60;;;7.30;99.90;;;;;;4921125;29;20042;-88
2024/03/01 05:51:38;;;;;;;13.27;6.97;;;7.30;99.90;;;;;;4920635;29;20453;-88
2024/03/01 05:54:05;;;;;;;13.60;7.13;;;8.10;99.90;;;;;;4935917;29;20486;-88
2024/03/01 05:56:32;;;;;;;14.13;7.78;;;7.30;99.90;;;;;;4921146;29;20127;-88
2024/03/01 05:58:59;;;;;;;13.55;7.18;;;8.00;99.90;;;;;;4921110;29;20036;-88
2024/03/01 06:01:26;;;;;;;16.08;7.03;;;7.80;99.90;;;;;;4920582;29;20063;-88
2024/03/01 06:03:53;;;;;;;13.95;7.53;;;8.10;99.90;;;;;;4932466;29;20048;-88
2024/03/01 06:06:20;;;;;;;15.73;7.68;;;7.40;99.90;;;;;;4936011;29;20044;-88
2024/03/01 06:08:47;;;;;;;18.20;8.50;;;7.80;99.90;;;;;;4920529;29;20192;-87
2024/03/01 06:11:14;;;;;;;13.45;7.57;;;8.40;99.90;;;;;;4920014;29;20040;-88
2024/03/01 06:13:41;;;;;;;16.15;8.35;;;7.40;99.90;;;;;;4920313;29;20383;-87
2024/03/01 06:16:08;;;;;;;15.63;8.20;;;7.40;99.90;;;;;;4935929;29;20123;-88
2024/03/01 06:18:35;;;;;;;14.27;7.75;;;7.50;99.90;;;;;;4935539;29;20123;-88
2024/03/01 06:21:02;;;;;;;13.73;8.02;;;7.50;99.90;;;;;;4920527;29;20048;-88
2024/03/01 06:23:28;;;;;;;16.88;7.82;;;7.60;99.90;;;;;;4919798;29;20528;-87
2024/03/01 06:25:56;;;;;;;14.63;8.23;;;7.50;99.90;;;;;;4920200;29;20036;-88
2024/03/01 06:28:23;;;;;;;14.23;8.15;;;7.50;99.90;;;;;;4935294;29;20066;-88
2024/03/01 06:30:50;;;;;;;16.40;8.43;;;7.50;99.90;;;;;;4920043;29;20044;-88
2024/03/01 06:33:16;;;;;;;15.82;8.40;;;7.50;99.90;;;;;;4920716;29;20131;-88
2024/03/01 06:35:43;;;;;;;14.40;7.80;;;7.50;99.90;;;;;;4935551;29;20075;-88
2024/03/01 06:38:09;;;;;;;15.15;8.10;;;7.70;99.90;;;;;;4938456;29;20043;-88
2024/03/01 06:40:36;;;;;;;15.82;8.88;;;8.30;99.90;;;;;;4938451;29;20051;-88
2024/03/01 06:43:03;;;;;;;17.35;8.70;;;8.50;99.90;;;;;;4937967;29;20079;-88
2024/03/01 06:45:31;;;;;;;14.02;8.13;;;7.60;99.90;;;;;;4936376;29;20493;-88
2024/03/01 06:47:58;;;;;;;17.27;8.75;;;7.60;99.90;;;;;;4938775;29;20036;-88
2024/03/01 06:50:26;;;;;;;16.27;8.68;;;7.60;99.90;;;;;;4938246;29;20812;-88
2024/03/01 06:52:53;;;;;;;16.25;8.80;;;8.40;99.90;;;;;;4938024;29;20417;-88
2024/03/01 06:55:20;;;;;;;16.38;8.75;;;7.60;99.90;;;;;;4937308;29;20032;-88
2024/03/01 06:57:47;;;;;;;16.55;8.52;;;7.60;99.90;;;;;;4937887;29;20067;-88
2024/03/01 07:00:14;;;;;;;15.23;8.85;;;7.60;99.90;;;;;;4938404;29;20082;-88
2024/03/01 07:02:41;;;;;;;14.68;8.57;;;7.70;99.90;;;;;;4930458;29;20040;-88
2024/03/01 07:05:08;;;;;;;17.60;8.52;;;7.70;99.90;;;;;;4931529;29;20050;-89
2024/03/01 07:07:36;;;;;;;16.55;8.88;;;8.60;99.90;;;;;;4938117;29;20042;-88
2024/03/01 07:10:04;;;;;;;15.10;8.45;;;8.10;99.90;;;;;;4938005;29;20062;-88
2024/03/01 07:12:30;;;;;;;14.68;8.32;;;7.80;99.90;;;;;;4938668;29;20075;-88
2024/03/01 07:14:57;;;;;;;16.02;8.35;;;7.80;99.90;;;;;;4938175;29;20742;-88
2024/03/01 07:17:24;;;;;;;20.85;9.95;;;8.10;99.90;;;;;;4953968;29;20520;-89
2024/03/01 07:19:51;;;;;;;13.63;7.88;;;8.50;99.90;;;;;;4938344;29;20043;-89
2024/03/01 07:22:18;;;;;;;15.88;8.32;;;7.90;99.90;;;;;;4937825;29;20079;-88
2024/03/01 07:24:44;;;;;;;16.65;9.27;;;8.50;99.90;;;;;;4938002;29;20427;-88
2024/03/01 07:27:11;;;;;;;16.83;8.38;;;9.10;99.90;;;;;;4937668;29;20512;-89
2024/03/01 07:29:38;;;;;;;19.60;8.80;;;7.80;99.90;;;;;;4934585;29;20040;-87
2024/03/01 07:32:05;;;;;;;19.23;9.20;;;7.80;99.90;;;;;;4930579;29;20102;-88
2024/03/01 07:34:31;;;;;;;17.92;9.02;;;7.90;99.90;;;;;;4934447;29;20052;-87
2024/03/01 07:36:58;;;;;;;17.55;9.38;;;7.90;99.90;;;;;;4934170;29;20040;-88
2024/03/01 07:39:25;;;;;;;18.17;8.98;;;8.90;99.90;;;;;;4922933;29;20118;-88
2024/03/01 07:41:51;;;;;;;15.40;8.63;;;8.90;99.90;;;;;;4931901;29;20382;-88
2024/03/01 07:44:18;;;;;;;18.15;8.95;;;7.90;99.90;;;;;;4936307;29;20028;-90
2024/03/01 07:46:45;;;;;;;17.02;8.82;;;8.60;99.90;;;;;;4937490;29;20118;-90
2024/03/01 07:49:14;;;;;;;16.98;8.60;;;8.50;99.90;;;;;;4937334;29;20039;-91
2024/03/01 07:51:42;;;;;;;18.48;9.95;;;9.00;99.90;;;;;;4937352;29;20043;-92
2024/03/01 07:54:09;;;;;;;14.90;8.85;;;8.00;99.90;;;;;;4936937;29;20036;-90
2024/03/01 07:56:36;;;;;;;15.50;8.43;;;7.90;99.90;;;;;;4937266;29;20085;-90
2024/03/01 07:59:03;;;;;;;20.38;12.82;;;8.50;99.90;;;;;;4937705;29;20044;-90
2024/03/01 08:01:31;;;;;;;15.68;9.25;;;7.90;99.90;;;;;;4937270;29;20039;-91
2024/03/01 08:03:58;;;;;;;16.08;9.73;;;7.90;99.90;;;;;;4937964;29;20047;-90
2024/03/01 08:06:27;;;;;;;17.15;9.23;;;9.00;99.90;;;;;;4936764;29;20386;-90
2024/03/01 08:08:53;;;;;;;10.93;6.68;;;7.90;99.90;;;;;;4949527;29;20051;-90
2024/03/01 08:11:44;;;;;;;12.55;5.82;;;7.90;99.90;;;;;;4935813;29;20074;-90
2024/03/01 08:14:24;;;;;;;8.27;4.65;;;7.90;99.90;;;;;;4926236;29;20047;-90
2024/03/01 08:16:52;;;;;;;7.63;3.92;;;7.90;99.90;;;;;;4936490;29;20099;-90
2024/03/01 08:19:21;;;;;;;5.50;3.17;;;7.90;99.90;;;;;;4937197;29;20036;-90
2024/03/01 08:21:59;;;;;;;3.80;2.00;;;8.40;99.90;;;;;;4918231;29;20045;-90
2024/03/01 08:24:26;;;;;;;3.50;1.52;;;7.80;99.90;;;;;;4932526;29;20168;-89
2024/03/01 08:26:53;;;;;;;2.90;1.30;;;8.40;99.90;;;;;;4937049;29;20150;-90
2024/03/01 08:29:19;;;;;;;3.17;1.20;;;7.30;99.90;;;;;;4934114;29;20047;-90
2024/03/01 08:31:46;;;;;;;3.70;1.27;;;7.30;99.90;;;;;;4936010;29;20036;-90
2024/03/01 08:34:25;;;;;;;3.00;1.38;;;7.80;99.90;;;;;;4952502;29;20064;-91
2024/03/01 08:36:52;;;;;;;4.38;1.58;;;7.30;99.90;;;;;;4940055;29;20562;-90
2024/03/01 08:39:21;;;;;;;4.53;2.15;;;7.80;99.90;;;;;;4952677;29;20063;-91
2024/03/01 08:41:55;;;;;;;5.50;2.00;;;7.60;99.90;;;;;;4936580;29;20503;-90
2024/03/01 08:44:32;;;;;;;3.05;1.40;;;7.20;99.90;;;;;;4937150;29;20512;-86
2024/03/01 08:46:59;;;;;;;6.90;1.35;;;7.20;99.90;;;;;;4934087;29;20039;-86
2024/03/01 08:49:47;;;;;;;3.83;1.15;;;7.20;99.90;;;;;;4935861;29;20050;-87
2024/03/01 08:52:35;;;;;;;3.70;1.00;;;7.30;99.90;;;;;;4934023;29;20036;-86
2024/03/01 08:55:20;;;;;;;5.13;1.70;;;7.10;99.90;;;;;;4936597;29;20119;-86
2024/03/01 08:57:50;;;;;;;6.70;1.92;;;7.00;99.90;;;;;;4927018;29;20046;-86
2024/03/01 09:00:39;;;;;;;4.55;1.75;;;7.80;99.90;;;;;;4952213;29;20048;-86
2024/03/01 09:03:10;;;;;;;3.58;1.83;;;7.30;99.90;;;;;;4928098;29;20046;-86
2024/03/01 09:05:39;;;;;;;6.07;1.67;;;7.70;99.90;;;;;;4951973;29;20048;-87
2024/03/01 09:08:13;;;;;;;5.65;2.30;;;7.30;99.90;;;;;;4952672;29;20504;-87
2024/03/01 09:10:42;;;;;;;4.97;2.25;;;7.40;99.90;;;;;;4935066;29;20108;-87
2024/03/01 09:13:09;;;;;;;5.65;1.73;;;8.10;99.90;;;;;;4935961;29;20035;-87
2024/03/01 09:15:40;;;;;;;6.88;1.80;;;8.00;99.90;;;;;;4936899;29;20043;-87
2024/03/01 09:18:41;;;;;;;4.57;1.70;;;7.40;99.90;;;;;;4936182;29;20032;-88
2024/03/01 09:21:34;;;;;;;4.82;1.80;;;7.40;99.90;;;;;;4934781;29;20386;-88
2024/03/01 09:24:02;;;;;;;4.10;1.88;;;7.90;99.90;;;;;;4939972;29;20048;-88
2024/03/01 09:26:29;;;;;;;6.07;1.73;;;8.00;99.90;;;;;;4939503;29;20046;-88
2024/03/01 09:29:01;;;;;;;10.77;3.10;;;8.50;99.90;;;;;;4939808;29;20043;-88
2024/03/01 09:31:32;;;;;;;6.22;2.30;;;7.70;99.90;;;;;;4939879;29;20043;-88
2024/03/01 09:34:15;;;;;;;6.47;2.10;;;8.20;99.90;;;;;;4939789;29;20056;-88
2024/03/01 09:36:42;;;;;;;4.07;1.30;;;8.00;99.90;;;;;;4939974;29;20043;-88
2024/03/01 09:39:11;;;;;;;3.88;1.30;;;8.00;99.90;;;;;;4940280;29;20036;-88
2024/03/01 09:41:38;;;;;;;3.30;1.10;;;8.10;99.90;;;;;;4939871;29;20393;-88
2024/03/01 09:44:28;;;;;;;3.42;1.00;;;8.20;99.90;;;;;;4939604;29;20083;-88
2024/03/01 09:47:27;;;;;;;3.47;0.95;;;8.20;99.90;;;;;;4951280;29;20039;-87
2024/03/01 09:50:22;;;;;;;1.83;0.63;;;8.30;99.90;;;;;;4938603;29;20046;-88
2024/03/01 09:53:02;;;;;;;1.52;0.77;;;8.40;99.90;;;;;;4917428;29;20045;-88
2024/03/01 09:55:43;;;;;;;3.58;0.80;;;8.40;99.90;;;;;;4937134;29;20042;-87
2024/03/01 09:58:52;;;;;;;1.95;0.70;;;8.50;99.90;;;;;;4929826;29;20788;-88
2024/03/01 10:01:28;;;;;;;1.90;1.02;;;8.60;99.90;;;;;;4928778;29;20048;-88
2024/03/01 10:04:19;;;;;;;3.28;1.30;;;9.10;99.90;;;;;;4942799;29;20082;-87
2024/03/01 10:06:55;;;;;;;1.85;1.00;;;8.70;99.90;;;;;;4939711;29;20043;-87
2024/03/01 10:09:37;;;;;;;4.90;0.70;;;8.60;99.90;;;;;;4960945;29;20063;-88
2024/03/01 10:12:12;;;;;;;2.83;0.88;;;8.60;99.90;;;;;;4935278;29;20070;-88
2024/03/01 10:14:54;;;;;;;1.92;1.10;;;9.20;99.90;;;;;;4947801;29;20032;-88
2024/03/01 10:17:46;;;;;;;2.72;1.20;;;8.50;99.90;;;;;;4934084;29;20508;-87
2024/03/01 10:20:27;;;;;;;4.30;1.67;;;8.50;99.90;;;;;;4930504;29;20104;-88
2024/03/01 10:23:18;;;;;;;4.15;2.05;;;8.50;99.90;;;;;;4923136;29;20040;-87
2024/03/01 10:26:11;;;;;;;4.22;1.95;;;8.50;99.90;;;;;;4950202;29;20097;-86
2024/03/01 10:29:05;;;;;;;3.45;1.85;;;8.40;99.90;;;;;;4938526;29;20035;-86
2024/03/01 10:31:53;;;;;;;3.30;1.80;;;8.30;99.90;;;;;;4941788;29;20044;-85
2024/03/01 10:34:36;;;;;;;2.85;1.52;;;8.20;99.90;;;;;;4925292;29;20058;-86
2024/03/01 10:37:14;;;;;;;3.67;1.88;;;8.20;99.90;;;;;;4951697;29;20043;-85
2024/03/01 10:39:58;;;;;;;4.38;1.90;;;8.10;99.90;;;;;;4957390;29;20043;-88
2024/03/01 10:42:27;;;;;;;4.65;1.90;;;8.10;99.90;;;;;;4954245;29;20086;-87
2024/03/01 10:45:12;;;;;;;6.57;1.83;;;8.10;99.90;;;;;;4937686;29;20058;-87
2024/03/01 10:47:39;;;;;;;3.80;1.50;;;8.20;99.90;;;;;;4931605;29;20121;-87
2024/03/01 10:50:07;;;;;;;5.15;1.40;;;8.20;99.90;;;;;;4938410;29;20075;-87
2024/03/01 10:52:42;;;;;;;3.58;1.50;;;9.00;99.90;;;;;;4937702;29;20055;-86
2024/03/01 10:55:18;;;;;;;4.57;1.88;;;8.30;99.90;;;;;;4937996;29;20063;-86
2024/03/01 10:58:08;;;;;;;;;;;9.30;99.90;;;;;;4938029;29;20652;-86
2024/03/01 11:00:56;;;;;;;4.45;1.95;;;8.30;99.90;;;;;;4932551;29;19961;-86
2024/03/01 11:03:26;;;;;;;4.78;1.85;;;8.40;99.90;;;;;;4937355;29;20043;-86
2024/03/01 11:06:23;;;;;;;4.78;1.85;;;8.40;99.90;;;;;;4932228;29;20048;-86
2024/03/01 11:08:55;;;;;;;4.68;2.10;;;8.40;99.90;;;;;;4950638;29;20142;-86
2024/03/01 11:11:55;;;;;;;4.57;2.00;;;8.70;99.90;;;;;;4937529;29;20047;-87
2024/03/01 11:14:24;;;;;;;4.38;1.80;;;8.40;99.90;;;;;;4937721;29;20044;-87
2024/03/01 11:16:55;;;;;;;4.10;2.20;;;8.40;99.90;;;;;;4937765;29;20040;-87
2024/03/01 11:19:27;;;;;;;6.28;2.15;;;8.50;99.90;;;;;;4930857;29;20048;-86
2024/03/01 11:22:13;;;;;;;3.38;2.05;;;8.60;99.90;;;;;;4953304;29;20048;-86
2024/03/01 11:24:50;;;;;;;4.30;1.50;;;8.70;99.90;;;;;;4946578;29;20040;-86
2024/03/01 11:27:25;;;;;;;4.25;1.60;;;8.70;99.90;;;;;;4937575;29;20039;-86
2024/03/01 11:30:09;;;;;;;4.40;2.05;;;9.20;99.90;;;;;;4953022;29;20050;-87
2024/03/01 11:32:47;;;;;;;5.18;2.38;;;8.90;99.90;;;;;;4938111;29;20032;-87
2024/03/01 11:35:26;;;;;;;4.40;1.60;;;9.00;99.90;;;;;;4949658;29;20106;-87
2024/03/01 11:38:23;;;;;;;3.50;1.70;;;9.10;99.90;;;;;;4935403;29;20087;-87
2024/03/01 11:41:05;;;;;;;4.65;2.20;;;9.80;99.90;;;;;;4928538;29;20122;-87
2024/03/01 11:43:54;;;;;;;4.25;2.10;;;9.30;99.90;;;;;;4936734;29;20047;-87
2024/03/01 11:46:23;;;;;;;3.53;1.75;;;9.50;99.90;;;;;;4934239;29;20056;-87
2024/03/01 11:49:08;;;;;;;3.70;2.20;;;9.60;99.90;;;;;;4928122;29;20054;-86
2024/03/01 11:51:49;;;;;;;3.42;1.52;;;9.70;99.90;;;;;;4936657;29;20047;-87
2024/03/01 11:54:33;;;;;;;4.80;1.90;;;9.70;99.90;;;;;;4934599;29;20082;-86
2024/03/01 11:57:12;;;;;;;3.65;1.52;;;9.60;99.90;;;;;;4936438;29;20063;-87
2024/03/01 12:00:03;;;;;;;4.05;1.83;;;9.60;99.90;;;;;;4935856;29;20063;-87
2024/03/01 12:02:39;;;;;;;4.18;1.70;;;9.50;99.90;;;;;;4932755;29;20035;-86
2024/03/01 12:05:19;;;;;;;3.90;1.85;;;9.70;99.90;;;;;;4948397;29;20040;-86
2024/03/01 12:08:06;;;;;;;3.60;1.60;;;9.70;99.90;;;;;;4933576;29;20047;-87
2024/03/01 12:10:44;;;;;;;4.18;1.88;;;9.80;99.90;;;;;;4923106;29;20055;-86
2024/03/01 12:13:14;;;;;;;5.85;2.05;;;9.90;99.90;;;;;;4936841;29;20075;-86
2024/03/01 12:16:04;;;;;;;4.47;1.85;;;9.80;99.90;;;;;;4933276;29;20036;-86
2024/03/01 12:18:51;;;;;;;7.05;3.40;;;9.90;99.90;;;;;;4935197;29;20036;-87
2024/03/01 12:21:39;;;;;;;5.95;2.20;;;9.90;99.90;;;;;;4946670;29;20047;-86
2024/03/01 12:24:24;;;;;;;4.47;2.10;;;10.00;99.90;;;;;;4933551;29;20489;-86
2024/03/01 12:27:09;;;;;;;5.55;2.13;;;10.10;99.90;;;;;;4950816;29;20139;-86
2024/03/01 12:29:42;;;;;;;3.72;2.10;;;10.10;99.90;;;;;;4936183;29;20050;-86
2024/03/01 12:32:38;;;;;;;3.58;1.92;;;10.10;99.90;;;;;;4938632;29;20040;-86
2024/03/01 12:35:31;;;;;;;4.45;2.15;;;10.20;99.90;;;;;;4924468;29;20497;-86
2024/03/01 12:38:14;;;;;;;4.00;2.20;;;10.20;99.90;;;;;;4936042;29;20493;-86
2024/03/01 12:41:10;;;;;;;4.90;2.03;;;10.20;99.90;;;;;;4937754;29;20044;-86
2024/03/01 12:44:14;;;;;;;4.53;2.33;;;10.30;99.90;;;;;;4931968;29;20068;-86
2024/03/01 12:47:18;;;;;;;4.97;2.45;;;10.30;99.90;;;;;;4922998;29;20123;-86
2024/03/01 12:49:45;;;;;;;4.45;2.47;;;10.40;99.90;;;;;;4935821;29;20704;-86
2024/03/01 12:52:45;;;;;;;4.70;2.42;;;10.50;99.90;;;;;;4936376;29;20055;-86
2024/03/01 12:55:26;;;;;;;8.52;2.38;;;10.50;99.90;;;;;;4951600;29;20039;-86
2024/03/01 12:58:19;;;;;;;6.43;2.28;;;10.50;99.90;;;;;;4953149;29;20054;-86
2024/03/01 13:00:52;;;;;;;5.15;2.60;;;10.40;99.90;;;;;;4913421;29;20069;-86
2024/03/01 13:03:56;;;;;;;3.97;2.15;;;10.50;99.90;;;;;;4954690;29;20047;-86
2024/03/01 13:06:24;;;;;;;4.57;2.13;;;10.70;99.90;;;;;;4939603;29;20071;-86
2024/03/01 13:09:14;;;;;;;5.20;2.47;;;10.40;99.90;;;;;;4938911;29;20055;-86
2024/03/01 13:11:49;;;;;;;5.05;2.53;;;10.40;99.90;;;;;;4939035;29;20114;-86
2024/03/01 13:14:39;;;;;;;4.60;2.17;;;10.30;99.90;;;;;;4956095;29;20043;-87
2024/03/01 13:17:18;;;;;;;3.25;1.77;;;10.20;99.90;;;;;;4939148;29;20043;-86